Flight Track Log - Related Links

Times and Time Zones

All times are in EDT time to prevent confusion due to time zone crossing. See the SWA333 flight status page for this flight to view local times or setup timezone preferences in your user account.

Time Position Orientation Groundspeed Altitude Reporting Facility
EDT Latitude Longitude Course Direction KTS MPH feet Rate Location/Type
Sun 08:08:24 PM 39.1667 -76.7500 291° West 208 239 4,100  Level Potomac TRACON
Sun 08:10:00 PM 39.2067 -76.8825 291° West 252 290 8,200 2,769 Climbing Washington Center
Sun 08:11:00 PM 39.2431 -76.9853 295° West 278 320 11,300 3,174 Climbing Washington Center
Sun 08:12:01 PM 39.2814 -77.0958 294° West 305 351 14,600 3,277 Climbing Washington Center
Sun 08:12:59 PM 39.3194 -77.2067 294° West 328 377 17,800 2,847 Climbing Washington Center
Sun 08:13:59 PM 39.3617 -77.3231 295° West 349 402 20,200 2,500 Climbing Washington Center
Sun 08:14:59 PM 39.4056 -77.4422 296° West 361 415 22,800 2,281 Climbing Washington Center
Sun 08:16:00 PM 39.4475 -77.5722 293° West 379 436 24,800 1,869 Climbing Washington Center
Sun 08:17:01 PM 39.4908 -77.7053 293° West 391 450 26,600 1,316 Climbing Washington Center
Sun 08:19:07 PM 39.5742 -77.9847 291° West 416 479 28,900 1,628 Climbing Cleveland Center
Sun 08:20:09 PM 39.6164 -78.1275 291° West 422 486 31,700 2,177 Climbing Cleveland Center
Sun 08:21:11 PM 39.6644 -78.2878 291° West 401 461 33,400 1,355 Climbing Cleveland Center
Sun 08:22:13 PM 39.7069 -78.4328 291° West 424 488 34,500 1,113 Climbing Cleveland Center
Sun 08:23:15 PM 39.7492 -78.5778 291° West 428 493 35,700 1,210 Climbing Cleveland Center
Sun 08:24:17 PM 39.7956 -78.7347 291° West 433 498 37,000 1,210 Climbing Cleveland Center
Sun 08:25:19 PM 39.8375 -78.8828 290° West 435 501 38,200 1,065 Climbing Cleveland Center
Sun 08:26:21 PM 39.8786 -79.0231 291° West 434 499 39,200 871 Climbing Cleveland Center
Sun 08:27:23 PM 39.9203 -79.1683 291° West 431 496 40,000 387 Climbing Cleveland Center
Sun 08:28:25 PM 39.9708 -79.3444 291° West 431 496 40,000  Level Cleveland Center
Sun 08:29:27 PM 40.0347 -79.4758 302° West 430 495 40,000  Level Cleveland Center
Sun 08:30:29 PM 40.1014 -79.6058 304° West 432 497 40,000  Level Cleveland Center
Sun 08:31:31 PM 40.1672 -79.7358 304° West 430 495 40,000  Level Cleveland Center
Sun 08:32:33 PM 40.2342 -79.8664 304° West 431 496 40,000  Level Cleveland Center
Sun 08:33:35 PM 40.2997 -79.9969 303° West 431 496 40,000  Level Cleveland Center
Sun 08:34:37 PM 40.3822 -80.1569 304° West 432 497 40,000  Level Cleveland Center
Sun 08:35:39 PM 40.4481 -80.2869 304° West 432 497 40,000  Level Cleveland Center
Sun 08:36:41 PM 40.5044 -80.4019 303° West 431 496 40,000  Level Cleveland Center
Sun 08:37:43 PM 40.5839 -80.5592 304° West 431 496 40,000  Level Cleveland Center
Sun 08:38:45 PM 40.6433 -80.6792 303° West 431 496 40,000  Level Cleveland Center
Sun 08:39:47 PM 40.7178 -80.8150 306° West 426 490 40,000  Level Cleveland Center
Sun 08:40:49 PM 40.7936 -80.9319 311° West 424 488 40,000  Level Cleveland Center
Sun 08:41:51 PM 40.8772 -81.0642 310° West 423 487 40,000  Level Cleveland Center
Sun 08:42:53 PM 40.9528 -81.1861 309° West 423 487 40,000  Level Cleveland Center
Sun 08:43:54 PM 41.0278 -81.3078 309° West 424 488 40,000  Level Cleveland Center
Sun 08:44:56 PM 41.1042 -81.4311 309° West 426 490 40,000  Level Cleveland Center
Sun 08:45:58 PM 41.1825 -81.5581 309° West 426 490 40,000  Level Cleveland Center
Sun 08:47:00 PM 41.2569 -81.6778 309° West 424 488 40,000  Level Cleveland Center
Sun 08:48:01 PM 41.3303 -81.7969 309° West 422 486 40,000  Level Cleveland Center
Sun 08:49:03 PM 41.4086 -81.9261 309° West 422 486 40,000  Level Cleveland Center
Sun 08:50:05 PM 41.4822 -82.0469 309° West 419 482 40,000  Level Cleveland Center
Sun 08:51:07 PM 41.5558 -82.1681 309° West 418 481 40,000  Level Cleveland Center
Sun 08:52:08 PM 41.6278 -82.2881 309° West 416 479 40,000  Level Cleveland Center
Sun 08:53:10 PM 41.7042 -82.4150 309° West 409 471 40,000  Level Cleveland Center
Sun 08:54:12 PM 41.7747 -82.5319 309° West 408 470 40,000  Level Cleveland Center
Sun 08:55:14 PM 41.8447 -82.6497 309° West 407 468 40,000  Level Cleveland Center
Sun 08:56:15 PM 41.9153 -82.7694 308° West 409 471 40,000  Level Cleveland Center
Sun 08:57:17 PM 41.9867 -82.8894 309° West 410 472 40,000  Level Cleveland Center
Sun 08:58:19 PM 42.0689 -83.0289 308° West 404 465 40,000  Level Cleveland Center
Sun 08:59:20 PM 42.1361 -83.1436 308° West 395 455 40,000  Level Cleveland Center
Sun 09:00:22 PM 42.2017 -83.2553 308° West 392 451 40,000  Level Cleveland Center
Sun 09:01:24 PM 42.2683 -83.3703 308° West 389 448 40,000  Level Cleveland Center
Sun 09:02:25 PM 42.3369 -83.4869 309° West 389 448 40,000  Level Cleveland Center
Sun 09:03:27 PM 42.4117 -83.6183 308° West 395 455 40,000  Level Cleveland Center
Sun 09:04:29 PM 42.4794 -83.7353 308° West 396 456 40,000  Level Cleveland Center
Sun 09:05:30 PM 42.5478 -83.8550 308° West 396 456 40,000  Level Cleveland Center
Sun 09:06:32 PM 42.6172 -83.9756 308° West 403 464 40,000  Level Cleveland Center
Sun 09:07:33 PM 42.6858 -84.0992 307° West 405 466 40,000  Level Cleveland Center
Sun 09:08:35 PM 42.7169 -84.2458 286° West 404 465 40,000  Level Cleveland Center
Sun 09:09:37 PM 42.7467 -84.4244 283° West 405 466 40,000  Level Cleveland Center
Sun 09:10:38 PM 42.7714 -84.5750 283° West 406 467 40,000  Level Cleveland Center
Sun 09:11:40 PM 42.7967 -84.7264 283° West 407 468 40,000  Level Cleveland Center
Sun 09:12:50 PM 42.8269 -84.9067 283° West 409 471 40,000  Level Chicago Center
Sun 09:13:52 PM 42.8508 -85.0608 282° West 412 474 40,000 -194 Level Chicago Center
Sun 09:14:54 PM 42.8756 -85.2158 282° West 415 478 39,600 -629 Descending Chicago Center
Sun 09:15:56 PM 42.9006 -85.3681 283° West 415 478 38,700 -919 Descending Chicago Center
Sun 09:16:58 PM 42.9239 -85.5172 282° West 408 470 37,700 -1,548 Descending Chicago Center
Sun 09:18:00 PM 42.9467 -85.6606 282° West 393 452 35,500 -2,516 Descending Chicago Center
Sun 09:19:02 PM 42.9714 -85.8242 282° West 370 426 32,500 -2,537 Descending Chicago Center
Sun 09:20:03 PM 42.9911 -85.9442 283° West 353 406 30,300 -2,390 Descending Chicago Center
Sun 09:21:05 PM 43.0150 -86.0981 282° West 357 411 27,600 -2,323 Descending Chicago Center
Sun 09:22:07 PM 43.0339 -86.2331 281° West 364 419 25,500 -1,984 Descending Chicago Center
Sun 09:23:09 PM 43.0531 -86.3536 282° West 329 379 23,500 -1,645 Descending Chicago Center
Sun 09:24:11 PM 43.0717 -86.4781 282° West 331 381 22,100 -1,500 Descending Chicago Center
Sun 09:25:13 PM 43.0892 -86.5983 281° West 323 372 20,400 -1,694 Descending Chicago Center
Sun 09:26:15 PM 43.1067 -86.7175 281° West 317 365 18,600 -1,694 Descending Chicago Center
Sun 09:27:17 PM 43.1231 -86.8325 281° West 312 359 16,900 -1,984 Descending Chicago Center
Sun 09:28:19 PM 43.1408 -86.9714 280° West 309 356 14,500 -2,098 Descending Chicago Center
Sun 09:29:20 PM 43.1397 -87.0917 269° West 313 360 12,600 -1,854 Descending Chicago Center
Sun 09:30:22 PM 43.1417 -87.2125 271° West 316 364 10,700 -1,355 Descending Chicago Center
Sun 09:31:24 PM 43.1431 -87.3194 271° West 277 319 9,800 -1,161 Descending Chicago Center
Sun 09:32:26 PM 43.1303 -87.4169 260° West 266 306 8,300 -1,597 Descending Chicago Center
Sun 09:33:28 PM 43.1111 -87.5367 258° West 265 305 6,500 -1,463 Descending Chicago Center
Sun 09:34:29 PM 43.0967 -87.6319 258° West 261 300 5,300 -1,122 Descending Chicago Center
Sun 09:35:31 PM 43.0839 -87.7222 259° West 247 284 4,200 -1,016 Descending Chicago Center
Sun 09:36:33 PM 43.0722 -87.8053 259° West 231 266 3,200 -629 Descending Chicago Center
Sun 09:37:35 PM 43.0425 -87.8708 238° Southwest 215 247 2,900 -581 Descending Chicago Center
Sun 09:38:37 PM 43.0136 -87.8833 198° South 165 190 2,000 -537 Descending Chicago Center
Sun 09:39:38 PM 42.9800 -87.8889 187° South 158 182 1,800 -197 Descending Chicago Center
Sun 09:42:00 PM 42.9469 -87.8971 236° Southwest  Level Estimated

Login

Don't have an account? Register now (free) for customized features, flight alerts, and more!